sensor_id;sensor_type;location;lat;lon;timestamp;temperature;humidity
1778;DHT22;71547;50.146;8.174;2024-03-02T00:02:26;5.80;99.90
1778;DHT22;71547;50.146;8.174;2024-03-02T00:04:56;5.70;99.90
1778;DHT22;71547;50.146;8.174;2024-03-02T00:07:37;5.70;99.90
1778;DHT22;71547;50.146;8.174;2024-03-02T00:10:19;5.80;99.90
1778;DHT22;71547;50.146;8.174;2024-03-02T00:13:01;5.70;99.90
1778;DHT22;71547;50.146;8.174;2024-03-02T00:15:40;5.70;99.90
1778;DHT22;71547;50.146;8.174;2024-03-02T00:18:21;5.80;99.90
1778;DHT22;71547;50.146;8.174;2024-03-02T00:20:56;5.80;99.90
1778;DHT22;71547;50.146;8.174;2024-03-02T00:23:35;5.80;99.90
1778;DHT22;71547;50.146;8.174;2024-03-02T00:26:11;5.70;99.90
1778;DHT22;71547;50.146;8.174;2024-03-02T00:28:41;5.70;99.90
1778;DHT22;71547;50.146;8.174;2024-03-02T00:31:15;5.70;99.90
1778;DHT22;71547;50.146;8.174;2024-03-02T00:33:49;5.70;99.90
1778;DHT22;71547;50.146;8.174;2024-03-02T00:36:22;5.80;99.90
1778;DHT22;71547;50.146;8.174;2024-03-02T00:38:59;5.70;99.90
1778;DHT22;71547;50.146;8.174;2024-03-02T00:41:33;5.70;99.90
1778;DHT22;71547;50.146;8.174;2024-03-02T00:44:01;5.60;99.90
1778;DHT22;71547;50.146;8.174;2024-03-02T00:46:34;5.70;99.90
1778;DHT22;71547;50.146;8.174;2024-03-02T00:49:04;5.70;99.90
1778;DHT22;71547;50.146;8.174;2024-03-02T00:51:33;5.60;99.90
1778;DHT22;71547;50.146;8.174;2024-03-02T00:54:07;5.60;99.90
1778;DHT22;71547;50.146;8.174;2024-03-02T00:56:34;5.50;99.90
1778;DHT22;71547;50.146;8.174;2024-03-02T00:59:06;5.50;99.90
1778;DHT22;71547;50.146;8.174;2024-03-02T01:01:33;5.50;99.90
1778;DHT22;71547;50.146;8.174;2024-03-02T01:04:00;5.50;99.90
1778;DHT22;71547;50.146;8.174;2024-03-02T01:06:30;5.50;99.90
1778;DHT22;71547;50.146;8.174;2024-03-02T01:08:57;5.50;99.90
1778;DHT22;71547;50.146;8.174;2024-03-02T01:11:31;5.50;99.90
1778;DHT22;71547;50.146;8.174;2024-03-02T01:13:58;5.50;99.90
1778;DHT22;71547;50.146;8.174;2024-03-02T01:16:28;5.40;99.90
1778;DHT22;71547;50.146;8.174;2024-03-02T01:18:59;5.40;99.90
1778;DHT22;71547;50.146;8.174;2024-03-02T01:21:28;5.40;99.90
1778;DHT22;71547;50.146;8.174;2024-03-02T01:24:00;5.40;99.90
1778;DHT22;71547;50.146;8.174;2024-03-02T01:26:27;5.40;99.90
1778;DHT22;71547;50.146;8.174;2024-03-02T01:28:57;5.40;99.90
1778;DHT22;71547;50.146;8.174;2024-03-02T01:31:24;5.30;99.90
1778;DHT22;71547;50.146;8.174;2024-03-02T01:33:54;5.30;99.90
1778;DHT22;71547;50.146;8.174;2024-03-02T01:36:22;5.30;99.90
1778;DHT22;71547;50.146;8.174;2024-03-02T01:38:55;5.30;99.90
1778;DHT22;71547;50.146;8.174;2024-03-02T01:41:24;5.30;99.90
1778;DHT22;71547;50.146;8.174;2024-03-02T01:44:00;5.30;99.90
1778;DHT22;71547;50.146;8.174;2024-03-02T01:46:45;5.30;99.90
1778;DHT22;71547;50.146;8.174;2024-03-02T01:49:17;5.30;99.90
1778;DHT22;71547;50.146;8.174;2024-03-02T01:51:49;5.30;99.90
1778;DHT22;71547;50.146;8.174;2024-03-02T01:54:28;5.30;99.90
1778;DHT22;71547;50.146;8.174;2024-03-02T01:56:58;5.30;99.90
1778;DHT22;71547;50.146;8.174;2024-03-02T01:59:39;5.40;99.90
1778;DHT22;71547;50.146;8.174;2024-03-02T02:02:09;5.40;99.90
1778;DHT22;71547;50.146;8.174;2024-03-02T02:04:38;5.40;99.90
1778;DHT22;71547;50.146;8.174;2024-03-02T02:07:09;5.40;99.90
1778;DHT22;71547;50.146;8.174;2024-03-02T02:09:43;5.40;99.90
1778;DHT22;71547;50.146;8.174;2024-03-02T02:12:11;5.30;99.90
1778;DHT22;71547;50.146;8.174;2024-03-02T02:14:52;5.40;99.90
1778;DHT22;71547;50.146;8.174;2024-03-02T02:17:23;5.40;99.90
1778;DHT22;71547;50.146;8.174;2024-03-02T02:19:52;5.50;99.90
1778;DHT22;71547;50.146;8.174;2024-03-02T02:22:20;5.50;99.90
1778;DHT22;71547;50.146;8.174;2024-03-02T02:24:53;5.50;99.90
1778;DHT22;71547;50.146;8.174;2024-03-02T02:27:23;5.40;99.90
1778;DHT22;71547;50.146;8.174;2024-03-02T02:29:50;5.40;99.90
1778;DHT22;71547;50.146;8.174;2024-03-02T02:32:21;5.50;99.90
1778;DHT22;71547;50.146;8.174;2024-03-02T02:34:52;5.50;99.90
1778;DHT22;71547;50.146;8.174;2024-03-02T02:37:20;5.40;99.90
1778;DHT22;71547;50.146;8.174;2024-03-02T02:39:50;5.50;99.90
1778;DHT22;71547;50.146;8.174;2024-03-02T02:42:20;5.60;99.90
1778;DHT22;71547;50.146;8.174;2024-03-02T02:44:47;5.60;99.90
1778;DHT22;71547;50.146;8.174;2024-03-02T02:47:17;5.60;99.90
1778;DHT22;71547;50.146;8.174;2024-03-02T02:49:47;5.60;99.90
1778;DHT22;71547;50.146;8.174;2024-03-02T02:52:14;5.60;99.90
1778;DHT22;71547;50.146;8.174;2024-03-02T02:54:46;5.60;99.90
1778;DHT22;71547;50.146;8.174;2024-03-02T02:57:16;5.60;99.90
1778;DHT22;71547;50.146;8.174;2024-03-02T02:59:43;5.50;99.90
1778;DHT22;71547;50.146;8.174;2024-03-02T03:02:10;5.50;99.90
1778;DHT22;71547;50.146;8.174;2024-03-02T03:04:40;5.40;99.90
1778;DHT22;71547;50.146;8.174;2024-03-02T03:07:07;5.40;99.90
1778;DHT22;71547;50.146;8.174;2024-03-02T03:09:37;5.40;99.90
1778;DHT22;71547;50.146;8.174;2024-03-02T03:12:07;5.30;99.90
1778;DHT22;71547;50.146;8.174;2024-03-02T03:14:34;5.40;99.90
1778;DHT22;71547;50.146;8.174;2024-03-02T03:17:02;5.30;99.90
1778;DHT22;71547;50.146;8.174;2024-03-02T03:19:29;5.30;99.90
1778;DHT22;71547;50.146;8.174;2024-03-02T03:21:58;5.40;99.90
1778;DHT22;71547;50.146;8.174;2024-03-02T03:24:25;5.50;99.90
1778;DHT22;71547;50.146;8.174;2024-03-02T03:26:59;5.40;99.90
1778;DHT22;71547;50.146;8.174;2024-03-02T03:29:30;5.40;99.90
1778;DHT22;71547;50.146;8.174;2024-03-02T03:32:11;5.30;99.90
1778;DHT22;71547;50.146;8.174;2024-03-02T03:34:38;5.30;99.90
1778;DHT22;71547;50.146;8.174;2024-03-02T03:37:05;5.30;99.90
1778;DHT22;71547;50.146;8.174;2024-03-02T03:39:36;5.30;99.90
1778;DHT22;71547;50.146;8.174;2024-03-02T03:42:06;5.30;99.90
1778;DHT22;71547;50.146;8.174;2024-03-02T03:44:37;5.40;99.90
1778;DHT22;71547;50.146;8.174;2024-03-02T03:47:06;5.40;99.90
1778;DHT22;71547;50.146;8.174;2024-03-02T03:49:33;5.40;99.90
1778;DHT22;71547;50.146;8.174;2024-03-02T03:52:03;5.30;99.90
1778;DHT22;71547;50.146;8.174;2024-03-02T03:54:31;5.40;99.90
1778;DHT22;71547;50.146;8.174;2024-03-02T03:56:58;5.40;99.90
1778;DHT22;71547;50.146;8.174;2024-03-02T03:59:25;5.30;99.90
1778;DHT22;71547;50.146;8.174;2024-03-02T04:01:53;5.40;99.90
1778;DHT22;71547;50.146;8.174;2024-03-02T04:04:22;5.40;99.90
1778;DHT22;71547;50.146;8.174;2024-03-02T04:06:49;5.30;99.90
1778;DHT22;71547;50.146;8.174;2024-03-02T04:09:17;5.30;99.90
1778;DHT22;71547;50.146;8.174;2024-03-02T04:11:44;5.30;99.90
1778;DHT22;71547;50.146;8.174;2024-03-02T04:14:13;5.30;99.90
1778;DHT22;71547;50.146;8.174;2024-03-02T04:16:40;5.30;99.90
1778;DHT22;71547;50.146;8.174;2024-03-02T04:19:09;5.30;99.90
1778;DHT22;71547;50.146;8.174;2024-03-02T04:21:38;5.30;99.90
1778;DHT22;71547;50.146;8.174;2024-03-02T04:24:05;5.30;99.90
1778;DHT22;71547;50.146;8.174;2024-03-02T04:26:34;5.30;99.90
1778;DHT22;71547;50.146;8.174;2024-03-02T04:29:03;5.30;99.90
1778;DHT22;71547;50.146;8.174;2024-03-02T04:31:30;5.20;99.90
1778;DHT22;71547;50.146;8.174;2024-03-02T04:33:57;5.20;99.90
1778;DHT22;71547;50.146;8.174;2024-03-02T04:36:26;5.20;99.90
1778;DHT22;71547;50.146;8.174;2024-03-02T04:38:53;5.20;99.90
1778;DHT22;71547;50.146;8.174;2024-03-02T04:41:21;5.20;99.90
1778;DHT22;71547;50.146;8.174;2024-03-02T04:43:48;5.20;99.90
1778;DHT22;71547;50.146;8.174;2024-03-02T04:46:15;5.20;99.90
1778;DHT22;71547;50.146;8.174;2024-03-02T04:48:42;5.20;99.90
1778;DHT22;71547;50.146;8.174;2024-03-02T04:51:10;5.10;99.90
1778;DHT22;71547;50.146;8.174;2024-03-02T04:53:42;5.10;99.90
1778;DHT22;71547;50.146;8.174;2024-03-02T04:56:11;5.20;99.90
1778;DHT22;71547;50.146;8.174;2024-03-02T04:58:57;5.10;99.90
1778;DHT22;71547;50.146;8.174;2024-03-02T05:01:24;5.10;99.90
1778;DHT22;71547;50.146;8.174;2024-03-02T05:03:51;5.20;99.90
1778;DHT22;71547;50.146;8.174;2024-03-02T05:06:18;5.30;99.90
1778;DHT22;71547;50.146;8.174;2024-03-02T05:08:47;5.30;99.90
1778;DHT22;71547;50.146;8.174;2024-03-02T05:11:14;5.20;99.90
1778;DHT22;71547;50.146;8.174;2024-03-02T05:14:02;5.20;99.90
1778;DHT22;71547;50.146;8.174;2024-03-02T05:16:29;5.20;99.90
1778;DHT22;71547;50.146;8.174;2024-03-02T05:18:56;5.20;99.90
1778;DHT22;71547;50.146;8.174;2024-03-02T05:21:23;5.10;99.90
1778;DHT22;71547;50.146;8.174;2024-03-02T05:23:51;5.10;99.90
1778;DHT22;71547;50.146;8.174;2024-03-02T05:26:18;5.10;99.90
1778;DHT22;71547;50.146;8.174;2024-03-02T05:28:45;5.10;99.90
1778;DHT22;71547;50.146;8.174;2024-03-02T05:31:15;5.10;99.90
1778;DHT22;71547;50.146;8.174;2024-03-02T05:33:47;5.20;99.90
1778;DHT22;71547;50.146;8.174;2024-03-02T05:36:23;5.30;99.90
1778;DHT22;71547;50.146;8.174;2024-03-02T05:38:52;5.30;99.90
1778;DHT22;71547;50.146;8.174;2024-03-02T05:41:19;5.20;99.90
1778;DHT22;71547;50.146;8.174;2024-03-02T05:43:48;5.10;99.90
1778;DHT22;71547;50.146;8.174;2024-03-02T05:46:18;5.10;99.90
1778;DHT22;71547;50.146;8.174;2024-03-02T05:48:45;5.10;99.90
1778;DHT22;71547;50.146;8.174;2024-03-02T05:51:12;5.10;99.90
1778;DHT22;71547;50.146;8.174;2024-03-02T05:53:39;5.20;99.90
1778;DHT22;71547;50.146;8.174;2024-03-02T05:56:08;5.30;99.90
1778;DHT22;71547;50.146;8.174;2024-03-02T05:58:35;5.30;99.90
1778;DHT22;71547;50.146;8.174;2024-03-02T06:01:20;5.30;99.90
1778;DHT22;71547;50.146;8.174;2024-03-02T06:03:55;5.40;99.90
1778;DHT22;71547;50.146;8.174;2024-03-02T06:06:22;5.40;99.90
1778;DHT22;71547;50.146;8.174;2024-03-02T06:08:50;5.30;99.90
1778;DHT22;71547;50.146;8.174;2024-03-02T06:11:20;5.40;99.90
1778;DHT22;71547;50.146;8.174;2024-03-02T06:13:47;5.40;99.90
1778;DHT22;71547;50.146;8.174;2024-03-02T06:16:14;5.50;99.90
1778;DHT22;71547;50.146;8.174;2024-03-02T06:18:41;5.40;99.90
1778;DHT22;71547;50.146;8.174;2024-03-02T06:21:08;5.40;99.90
1778;DHT22;71547;50.146;8.174;2024-03-02T06:23:35;5.50;99.90
1778;DHT22;71547;50.146;8.174;2024-03-02T06:26:09;5.40;99.90
1778;DHT22;71547;50.146;8.174;2024-03-02T06:28:41;5.50;99.90
1778;DHT22;71547;50.146;8.174;2024-03-02T06:31:08;5.50;99.90
1778;DHT22;71547;50.146;8.174;2024-03-02T06:33:35;5.50;99.90
1778;DHT22;71547;50.146;8.174;2024-03-02T06:36:03;5.50;99.90
1778;DHT22;71547;50.146;8.174;2024-03-02T06:38:35;5.50;99.90
1778;DHT22;71547;50.146;8.174;2024-03-02T06:41:03;5.50;99.90
1778;DHT22;71547;50.146;8.174;2024-03-02T06:43:32;5.40;99.90
1778;DHT22;71547;50.146;8.174;2024-03-02T06:46:00;5.50;99.90
1778;DHT22;71547;50.146;8.174;2024-03-02T06:48:28;5.50;99.90
1778;DHT22;71547;50.146;8.174;2024-03-02T06:50:57;5.50;99.90
1778;DHT22;71547;50.146;8.174;2024-03-02T06:53:25;5.50;99.90
1778;DHT22;71547;50.146;8.174;2024-03-02T06:55:52;5.50;99.90
1778;DHT22;71547;50.146;8.174;2024-03-02T06:58:19;5.50;99.90
1778;DHT22;71547;50.146;8.174;2024-03-02T07:00:46;5.50;99.90
1778;DHT22;71547;50.146;8.174;2024-03-02T07:03:16;5.50;99.90
1778;DHT22;71547;50.146;8.174;2024-03-02T07:05:43;5.50;99.90
1778;DHT22;71547;50.146;8.174;2024-03-02T07:08:10;5.50;99.90
1778;DHT22;71547;50.146;8.174;2024-03-02T07:10:37;5.60;99.90
1778;DHT22;71547;50.146;8.174;2024-03-02T07:13:04;5.60;99.90
1778;DHT22;71547;50.146;8.174;2024-03-02T07:15:31;5.60;99.90
1778;DHT22;71547;50.146;8.174;2024-03-02T07:18:06;5.70;99.90
1778;DHT22;71547;50.146;8.174;2024-03-02T07:20:35;5.80;99.90
1778;DHT22;71547;50.146;8.174;2024-03-02T07:23:02;5.80;99.90
1778;DHT22;71547;50.146;8.174;2024-03-02T07:25:32;5.80;99.90
1778;DHT22;71547;50.146;8.174;2024-03-02T07:28:02;5.90;99.90
1778;DHT22;71547;50.146;8.174;2024-03-02T07:30:33;5.90;99.90
1778;DHT22;71547;50.146;8.174;2024-03-02T07:33:01;6.00;99.90
1778;DHT22;71547;50.146;8.174;2024-03-02T07:35:28;6.10;99.90
1778;DHT22;71547;50.146;8.174;2024-03-02T07:37:59;6.10;99.90
1778;DHT22;71547;50.146;8.174;2024-03-02T07:40:26;6.20;99.90
1778;DHT22;71547;50.146;8.174;2024-03-02T07:42:56;6.20;99.90
1778;DHT22;71547;50.146;8.174;2024-03-02T07:45:23;6.20;99.90
1778;DHT22;71547;50.146;8.174;2024-03-02T07:47:51;6.30;99.90
1778;DHT22;71547;50.146;8.174;2024-03-02T07:50:18;6.40;99.90
1778;DHT22;71547;50.146;8.174;2024-03-02T07:52:46;6.40;99.90
1778;DHT22;71547;50.146;8.174;2024-03-02T07:55:14;6.30;99.90
1778;DHT22;71547;50.146;8.174;2024-03-02T07:57:41;6.30;99.90
1778;DHT22;71547;50.146;8.174;2024-03-02T08:00:10;6.30;99.90
1778;DHT22;71547;50.146;8.174;2024-03-02T08:02:38;6.30;99.90
1778;DHT22;71547;50.146;8.174;2024-03-02T08:05:05;6.40;99.90
1778;DHT22;71547;50.146;8.174;2024-03-02T08:07:33;6.40;99.90
1778;DHT22;71547;50.146;8.174;2024-03-02T08:10:02;6.40;99.90
1778;DHT22;71547;50.146;8.174;2024-03-02T08:12:30;6.40;99.90
1778;DHT22;71547;50.146;8.174;2024-03-02T08:14:58;6.40;99.90
1778;DHT22;71547;50.146;8.174;2024-03-02T08:17:30;6.50;99.90
1778;DHT22;71547;50.146;8.174;2024-03-02T08:20:00;6.50;99.90
1778;DHT22;71547;50.146;8.174;2024-03-02T08:22:29;6.50;99.90
1778;DHT22;71547;50.146;8.174;2024-03-02T08:24:59;6.60;99.90
1778;DHT22;71547;50.146;8.174;2024-03-02T08:27:26;6.60;99.90
1778;DHT22;71547;50.146;8.174;2024-03-02T08:29:58;6.60;99.90
1778;DHT22;71547;50.146;8.174;2024-03-02T08:32:25;6.60;99.90
1778;DHT22;71547;50.146;8.174;2024-03-02T08:34:52;6.50;99.90
1778;DHT22;71547;50.146;8.174;2024-03-02T08:37:22;6.50;99.90
1778;DHT22;71547;50.146;8.174;2024-03-02T08:39:50;6.60;99.90
1778;DHT22;71547;50.146;8.174;2024-03-02T08:42:18;6.60;99.90
1778;DHT22;71547;50.146;8.174;2024-03-02T08:44:45;6.70;99.90
1778;DHT22;71547;50.146;8.174;2024-03-02T08:47:13;6.60;99.90
1778;DHT22;71547;50.146;8.174;2024-03-02T08:49:42;6.60;99.90
1778;DHT22;71547;50.146;8.174;2024-03-02T08:52:09;6.60;99.90
1778;DHT22;71547;50.146;8.174;2024-03-02T08:54:36;6.60;99.90
1778;DHT22;71547;50.146;8.174;2024-03-02T08:57:05;6.60;99.90
1778;DHT22;71547;50.146;8.174;2024-03-02T08:59:32;6.70;99.90
1778;DHT22;71547;50.146;8.174;2024-03-02T09:01:59;6.70;99.90
1778;DHT22;71547;50.146;8.174;2024-03-02T09:04:28;6.90;99.90
1778;DHT22;71547;50.146;8.174;2024-03-02T09:07:00;7.00;99.90
1778;DHT22;71547;50.146;8.174;2024-03-02T09:09:27;7.00;99.90
1778;DHT22;71547;50.146;8.174;2024-03-02T09:11:55;7.10;99.90
1778;DHT22;71547;50.146;8.174;2024-03-02T09:14:24;7.10;99.90
1778;DHT22;71547;50.146;8.174;2024-03-02T09:16:51;7.20;99.90
1778;DHT22;71547;50.146;8.174;2024-03-02T09:19:18;7.20;99.90
1778;DHT22;71547;50.146;8.174;2024-03-02T09:21:47;7.30;99.90
1778;DHT22;71547;50.146;8.174;2024-03-02T09:24:14;7.30;99.90
1778;DHT22;71547;50.146;8.174;2024-03-02T09:26:44;7.40;99.90
1778;DHT22;71547;50.146;8.174;2024-03-02T09:29:11;7.50;99.90
1778;DHT22;71547;50.146;8.174;2024-03-02T09:31:39;7.60;99.90
1778;DHT22;71547;50.146;8.174;2024-03-02T09:34:06;7.70;99.90
1778;DHT22;71547;50.146;8.174;2024-03-02T09:36:34;7.70;99.90
1778;DHT22;71547;50.146;8.174;2024-03-02T09:39:02;7.70;99.90
1778;DHT22;71547;50.146;8.174;2024-03-02T09:41:30;7.80;99.90
1778;DHT22;71547;50.146;8.174;2024-03-02T09:44:00;7.80;99.90
1778;DHT22;71547;50.146;8.174;2024-03-02T09:46:27;7.80;99.90
1778;DHT22;71547;50.146;8.174;2024-03-02T09:48:54;7.80;99.90
1778;DHT22;71547;50.146;8.174;2024-03-02T09:51:23;7.80;99.90
1778;DHT22;71547;50.146;8.174;2024-03-02T09:53:50;7.90;99.90
1778;DHT22;71547;50.146;8.174;2024-03-02T09:56:25;7.90;99.90
1778;DHT22;71547;50.146;8.174;2024-03-02T09:58:52;8.00;99.90
1778;DHT22;71547;50.146;8.174;2024-03-02T10:01:24;8.00;99.90
1778;DHT22;71547;50.146;8.174;2024-03-02T10:03:55;8.00;99.90
1778;DHT22;71547;50.146;8.174;2024-03-02T10:06:27;8.00;99.90
1778;DHT22;71547;50.146;8.174;2024-03-02T10:08:57;8.00;99.90
1778;DHT22;71547;50.146;8.174;2024-03-02T10:11:33;8.00;99.90
1778;DHT22;71547;50.146;8.174;2024-03-02T10:14:07;8.00;99.90
1778;DHT22;71547;50.146;8.174;2024-03-02T10:16:36;8.00;99.90
1778;DHT22;71547;50.146;8.174;2024-03-02T10:19:30;8.10;99.90
1778;DHT22;71547;50.146;8.174;2024-03-02T10:22:02;8.20;99.90
1778;DHT22;71547;50.146;8.174;2024-03-02T10:24:45;8.30;99.90
1778;DHT22;71547;50.146;8.174;2024-03-02T10:27:29;8.50;99.90
1778;DHT22;71547;50.146;8.174;2024-03-02T10:30:11;8.60;99.90
1778;DHT22;71547;50.146;8.174;2024-03-02T10:32:48;8.60;99.90
1778;DHT22;71547;50.146;8.174;2024-03-02T10:35:19;8.60;99.90
1778;DHT22;71547;50.146;8.174;2024-03-02T10:37:54;8.70;99.90
1778;DHT22;71547;50.146;8.174;2024-03-02T10:40:23;8.80;99.90
1778;DHT22;71547;50.146;8.174;2024-03-02T10:42:56;9.00;99.90
1778;DHT22;71547;50.146;8.174;2024-03-02T10:45:30;9.00;99.90
1778;DHT22;71547;50.146;8.174;2024-03-02T10:48:08;9.10;99.90
1778;DHT22;71547;50.146;8.174;2024-03-02T10:50:48;9.10;99.90
1778;DHT22;71547;50.146;8.174;2024-03-02T10:53:33;9.10;99.90
1778;DHT22;71547;50.146;8.174;2024-03-02T10:56:07;9.10;99.90
1778;DHT22;71547;50.146;8.174;2024-03-02T10:58:37;9.20;99.90
1778;DHT22;71547;50.146;8.174;2024-03-02T11:01:06;9.30;99.90
1778;DHT22;71547;50.146;8.174;2024-03-02T11:03:37;9.40;99.90
1778;DHT22;71547;50.146;8.174;2024-03-02T11:06:26;9.40;99.90
1778;DHT22;71547;50.146;8.174;2024-03-02T11:09:16;9.40;99.90
1778;DHT22;71547;50.146;8.174;2024-03-02T11:11:53;9.40;99.90
1778;DHT22;71547;50.146;8.174;2024-03-02T11:14:35;9.40;99.90
1778;DHT22;71547;50.146;8.174;2024-03-02T11:17:23;9.50;99.90
1778;DHT22;71547;50.146;8.174;2024-03-02T11:19:56;9.50;99.90
1778;DHT22;71547;50.146;8.174;2024-03-02T11:22:24;9.50;99.90
1778;DHT22;71547;50.146;8.174;2024-03-02T11:24:57;9.60;99.90
1778;DHT22;71547;50.146;8.174;2024-03-02T11:28:02;9.60;99.90
1778;DHT22;71547;50.146;8.174;2024-03-02T11:30:49;9.60;99.90
1778;DHT22;71547;50.146;8.174;2024-03-02T11:33:26;9.80;99.90
1778;DHT22;71547;50.146;8.174;2024-03-02T11:36:00;9.80;99.90
1778;DHT22;71547;50.146;8.174;2024-03-02T11:38:35;9.90;99.90
1778;DHT22;71547;50.146;8.174;2024-03-02T11:41:11;10.00;99.90
1778;DHT22;71547;50.146;8.174;2024-03-02T11:43:44;10.10;99.90
1778;DHT22;71547;50.146;8.174;2024-03-02T11:46:12;10.20;99.90
1778;DHT22;71547;50.146;8.174;2024-03-02T11:48:43;10.20;99.90
1778;DHT22;71547;50.146;8.174;2024-03-02T11:51:16;10.30;99.90
1778;DHT22;71547;50.146;8.174;2024-03-02T11:53:49;10.30;99.90
1778;DHT22;71547;50.146;8.174;2024-03-02T11:56:17;10.30;99.90
1778;DHT22;71547;50.146;8.174;2024-03-02T11:58:45;10.30;99.90
1778;DHT22;71547;50.146;8.174;2024-03-02T12:01:16;10.40;99.90
1778;DHT22;71547;50.146;8.174;2024-03-02T12:03:47;10.40;99.90
1778;DHT22;71547;50.146;8.174;2024-03-02T12:06:15;10.40;99.90
1778;DHT22;71547;50.146;8.174;2024-03-02T12:08:43;10.40;99.90
1778;DHT22;71547;50.146;8.174;2024-03-02T12:11:13;10.40;99.90
1778;DHT22;71547;50.146;8.174;2024-03-02T12:13:52;10.40;99.90
1778;DHT22;71547;50.146;8.174;2024-03-02T12:16:25;10.40;99.90
1778;DHT22;71547;50.146;8.174;2024-03-02T12:18:54;10.50;99.90
1778;DHT22;71547;50.146;8.174;2024-03-02T12:21:22;10.60;99.90
1778;DHT22;71547;50.146;8.174;2024-03-02T12:23:50;10.70;99.90
1778;DHT22;71547;50.146;8.174;2024-03-02T12:26:17;10.80;99.90
1778;DHT22;71547;50.146;8.174;2024-03-02T12:28:44;11.00;99.90
1778;DHT22;71547;50.146;8.174;2024-03-02T12:31:11;11.10;99.90
1778;DHT22;71547;50.146;8.174;2024-03-02T12:33:38;11.10;99.90
1778;DHT22;71547;50.146;8.174;2024-03-02T12:36:10;11.20;99.90
1778;DHT22;71547;50.146;8.174;2024-03-02T12:38:43;11.20;99.90
1778;DHT22;71547;50.146;8.174;2024-03-02T12:41:23;11.30;99.90
1778;DHT22;71547;50.146;8.174;2024-03-02T12:43:50;11.30;99.90
1778;DHT22;71547;50.146;8.174;2024-03-02T12:46:17;11.30;99.90
1778;DHT22;71547;50.146;8.174;2024-03-02T12:48:56;11.30;99.90
1778;DHT22;71547;50.146;8.174;2024-03-02T12:51:34;11.30;99.90
1778;DHT22;71547;50.146;8.174;2024-03-02T12:54:02;11.40;99.90
1778;DHT22;71547;50.146;8.174;2024-03-02T12:56:36;11.40;99.90
1778;DHT22;71547;50.146;8.174;2024-03-02T12:59:09;11.40;99.90
1778;DHT22;71547;50.146;8.174;2024-03-02T13:01:37;11.40;99.90
1778;DHT22;71547;50.146;8.174;2024-03-02T13:04:09;11.40;99.90
1778;DHT22;71547;50.146;8.174;2024-03-02T13:06:40;11.50;99.90
1778;DHT22;71547;50.146;8.174;2024-03-02T13:11:56;11.60;99.90
1778;DHT22;71547;50.146;8.174;2024-03-02T13:14:26;11.50;99.90
1778;DHT22;71547;50.146;8.174;2024-03-02T13:16:58;11.60;99.90
1778;DHT22;71547;50.146;8.174;2024-03-02T13:19:27;11.70;99.90
1778;DHT22;71547;50.146;8.174;2024-03-02T13:22:04;11.70;99.90
1778;DHT22;71547;50.146;8.174;2024-03-02T13:24:40;11.70;99.90
1778;DHT22;71547;50.146;8.174;2024-03-02T13:27:19;11.70;99.90
1778;DHT22;71547;50.146;8.174;2024-03-02T13:29:51;11.70;99.90
1778;DHT22;71547;50.146;8.174;2024-03-02T13:32:29;11.80;99.90
1778;DHT22;71547;50.146;8.174;2024-03-02T13:35:04;11.80;99.90
1778;DHT22;71547;50.146;8.174;2024-03-02T13:37:35;11.80;99.90
1778;DHT22;71547;50.146;8.174;2024-03-02T13:40:05;11.90;99.90
1778;DHT22;71547;50.146;8.174;2024-03-02T13:42:33;11.90;99.90
1778;DHT22;71547;50.146;8.174;2024-03-02T13:45:05;12.00;99.90
1778;DHT22;71547;50.146;8.174;2024-03-02T13:47:39;12.10;99.90
1778;DHT22;71547;50.146;8.174;2024-03-02T13:50:14;12.00;99.90
1778;DHT22;71547;50.146;8.174;2024-03-02T13:52:42;12.00;99.90
1778;DHT22;71547;50.146;8.174;2024-03-02T13:55:17;12.00;99.90
1778;DHT22;71547;50.146;8.174;2024-03-02T13:57:47;12.10;99.90
1778;DHT22;71547;50.146;8.174;2024-03-02T14:00:17;12.10;99.90
1778;DHT22;71547;50.146;8.174;2024-03-02T14:02:45;12.00;99.90
1778;DHT22;71547;50.146;8.174;2024-03-02T14:05:15;12.10;99.90
1778;DHT22;71547;50.146;8.174;2024-03-02T14:07:47;12.10;99.90
1778;DHT22;71547;50.146;8.174;2024-03-02T14:10:14;12.10;99.90
1778;DHT22;71547;50.146;8.174;2024-03-02T14:12:42;12.20;99.90
1778;DHT22;71547;50.146;8.174;2024-03-02T14:15:19;12.20;99.90
1778;DHT22;71547;50.146;8.174;2024-03-02T14:17:47;12.10;99.90
1778;DHT22;71547;50.146;8.174;2024-03-02T14:20:17;12.10;99.90
1778;DHT22;71547;50.146;8.174;2024-03-02T14:22:50;12.20;99.90
1778;DHT22;71547;50.146;8.174;2024-03-02T14:25:18;12.20;99.90
1778;DHT22;71547;50.146;8.174;2024-03-02T14:27:46;12.10;99.90
1778;DHT22;71547;50.146;8.174;2024-03-02T14:30:35;12.00;99.90
1778;DHT22;71547;50.146;8.174;2024-03-02T14:33:05;12.10;99.90
1778;DHT22;71547;50.146;8.174;2024-03-02T14:35:34;12.10;99.90
1778;DHT22;71547;50.146;8.174;2024-03-02T14:38:03;12.20;99.90
1778;DHT22;71547;50.146;8.174;2024-03-02T14:40:30;12.10;99.90
1778;DHT22;71547;50.146;8.174;2024-03-02T14:42:57;12.20;99.90
1778;DHT22;71547;50.146;8.174;2024-03-02T14:45:25;12.30;99.90
1778;DHT22;71547;50.146;8.174;2024-03-02T14:47:52;12.40;99.90
1778;DHT22;71547;50.146;8.174;2024-03-02T14:50:22;12.40;99.90
1778;DHT22;71547;50.146;8.174;2024-03-02T14:52:49;12.40;99.90
1778;DHT22;71547;50.146;8.174;2024-03-02T14:55:17;12.30;99.90
1778;DHT22;71547;50.146;8.174;2024-03-02T14:57:44;12.40;99.90
1778;DHT22;71547;50.146;8.174;2024-03-02T15:00:12;12.50;99.90
1778;DHT22;71547;50.146;8.174;2024-03-02T15:02:39;12.50;99.90
1778;DHT22;71547;50.146;8.174;2024-03-02T15:05:07;12.60;99.90
1778;DHT22;71547;50.146;8.174;2024-03-02T15:07:34;12.70;99.80
1778;DHT22;71547;50.146;8.174;2024-03-02T15:10:01;12.60;99.80
1778;DHT22;71547;50.146;8.174;2024-03-02T15:12:30;12.70;99.80
1778;DHT22;71547;50.146;8.174;2024-03-02T15:14:58;12.70;99.90
1778;DHT22;71547;50.146;8.174;2024-03-02T15:17:25;12.70;99.90
1778;DHT22;71547;50.146;8.174;2024-03-02T15:19:53;12.80;99.90
1778;DHT22;71547;50.146;8.174;2024-03-02T15:22:20;13.00;99.40
1778;DHT22;71547;50.146;8.174;2024-03-02T15:24:47;13.10;99.20
1778;DHT22;71547;50.146;8.174;2024-03-02T15:27:14;13.10;99.50
1778;DHT22;71547;50.146;8.174;2024-03-02T15:29:43;13.10;99.30
1778;DHT22;71547;50.146;8.174;2024-03-02T15:32:10;13.00;99.00
1778;DHT22;71547;50.146;8.174;2024-03-02T15:34:37;13.00;99.10
1778;DHT22;71547;50.146;8.174;2024-03-02T15:37:07;13.00;99.10
1778;DHT22;71547;50.146;8.174;2024-03-02T15:39:37;12.90;99.40
1778;DHT22;71547;50.146;8.174;2024-03-02T15:42:05;12.80;99.60
1778;DHT22;71547;50.146;8.174;2024-03-02T15:44:34;12.70;99.60
1778;DHT22;71547;50.146;8.174;2024-03-02T15:47:03;12.70;99.80
1778;DHT22;71547;50.146;8.174;2024-03-02T15:49:30;12.70;99.90
1778;DHT22;71547;50.146;8.174;2024-03-02T15:51:58;12.90;99.60
1778;DHT22;71547;50.146;8.174;2024-03-02T15:54:30;12.90;99.60
1778;DHT22;71547;50.146;8.174;2024-03-02T15:57:03;12.80;99.80
1778;DHT22;71547;50.146;8.174;2024-03-02T15:59:42;12.70;99.90
1778;DHT22;71547;50.146;8.174;2024-03-02T16:02:14;12.60;99.90
1778;DHT22;71547;50.146;8.174;2024-03-02T16:04:45;12.50;99.90
1778;DHT22;71547;50.146;8.174;2024-03-02T16:07:14;12.30;99.90
1778;DHT22;71547;50.146;8.174;2024-03-02T16:09:43;12.20;99.90
1778;DHT22;71547;50.146;8.174;2024-03-02T16:12:15;12.00;99.90
1778;DHT22;71547;50.146;8.174;2024-03-02T16:14:43;11.90;99.90
1778;DHT22;71547;50.146;8.174;2024-03-02T16:17:16;11.70;99.90
1778;DHT22;71547;50.146;8.174;2024-03-02T16:19:43;11.50;99.90
1778;DHT22;71547;50.146;8.174;2024-03-02T16:22:14;11.50;99.90